sensor_id;sensor_type;location;lat;lon;timestamp;P1;durP1;ratioP1;P2;durP2;ratioP2
25249;SDS011;13201;51.148;13.738;2023-12-22T00:00:43;17.27;;;2.65;;
25249;SDS011;13201;51.148;13.738;2023-12-22T00:03:12;11.98;;;2.20;;
25249;SDS011;13201;51.148;13.738;2023-12-22T00:05:38;13.52;;;2.55;;
25249;SDS011;13201;51.148;13.738;2023-12-22T00:08:04;14.65;;;2.55;;
25249;SDS011;13201;51.148;13.738;2023-12-22T00:10:30;12.67;;;2.50;;
25249;SDS011;13201;51.148;13.738;2023-12-22T00:12:56;15.98;;;2.20;;
25249;SDS011;13201;51.148;13.738;2023-12-22T00:15:21;15.23;;;2.70;;
25249;SDS011;13201;51.148;13.738;2023-12-22T00:17:47;15.95;;;2.97;;
25249;SDS011;13201;51.148;13.738;2023-12-22T00:20:12;11.70;;;2.03;;
25249;SDS011;13201;51.148;13.738;2023-12-22T00:22:39;16.27;;;2.75;;
25249;SDS011;13201;51.148;13.738;2023-12-22T00:25:05;17.33;;;2.58;;
25249;SDS011;13201;51.148;13.738;2023-12-22T00:27:33;14.40;;;2.90;;
25249;SDS011;13201;51.148;13.738;2023-12-22T00:29:58;16.92;;;3.00;;
25249;SDS011;13201;51.148;13.738;2023-12-22T00:32:24;15.63;;;2.92;;
25249;SDS011;13201;51.148;13.738;2023-12-22T00:34:50;15.38;;;2.45;;
25249;SDS011;13201;51.148;13.738;2023-12-22T00:37:15;16.05;;;2.83;;
25249;SDS011;13201;51.148;13.738;2023-12-22T00:39:41;13.65;;;2.38;;
25249;SDS011;13201;51.148;13.738;2023-12-22T00:42:07;20.42;;;2.47;;
25249;SDS011;13201;51.148;13.738;2023-12-22T00:44:33;14.68;;;2.83;;
25249;SDS011;13201;51.148;13.738;2023-12-22T00:46:58;13.98;;;3.17;;
25249;SDS011;13201;51.148;13.738;2023-12-22T00:49:24;12.90;;;2.15;;
25249;SDS011;13201;51.148;13.738;2023-12-22T00:51:50;20.70;;;2.85;;
25249;SDS011;13201;51.148;13.738;2023-12-22T00:54:15;14.77;;;2.33;;
25249;SDS011;13201;51.148;13.738;2023-12-22T00:56:41;15.57;;;2.45;;
25249;SDS011;13201;51.148;13.738;2023-12-22T00:59:07;13.32;;;2.33;;
25249;SDS011;13201;51.148;13.738;2023-12-22T01:01:32;11.02;;;2.30;;
25249;SDS011;13201;51.148;13.738;2023-12-22T01:28:11;14.27;;;2.60;;
25249;SDS011;13201;51.148;13.738;2023-12-22T01:30:36;11.02;;;1.95;;
25249;SDS011;13201;51.148;13.738;2023-12-22T01:33:02;20.67;;;2.15;;
25249;SDS011;13201;51.148;13.738;2023-12-22T01:35:28;14.68;;;2.55;;
25249;SDS011;13201;51.148;13.738;2023-12-22T01:37:53;17.33;;;2.85;;
25249;SDS011;13201;51.148;13.738;2023-12-22T01:40:19;15.75;;;2.35;;
25249;SDS011;13201;51.148;13.738;2023-12-22T01:42:45;17.33;;;2.92;;
25249;SDS011;13201;51.148;13.738;2023-12-22T01:45:11;8.85;;;1.92;;
25249;SDS011;13201;51.148;13.738;2023-12-22T01:47:37;15.40;;;2.30;;
25249;SDS011;13201;51.148;13.738;2023-12-22T01:50:03;20.80;;;2.78;;
25249;SDS011;13201;51.148;13.738;2023-12-22T01:52:29;13.37;;;1.87;;
25249;SDS011;13201;51.148;13.738;2023-12-22T01:54:55;19.92;;;2.20;;
25249;SDS011;13201;51.148;13.738;2023-12-22T01:57:21;13.73;;;2.55;;
25249;SDS011;13201;51.148;13.738;2023-12-22T01:59:47;14.63;;;2.50;;
25249;SDS011;13201;51.148;13.738;2023-12-22T02:02:14;12.63;;;2.28;;
25249;SDS011;13201;51.148;13.738;2023-12-22T02:04:40;17.70;;;2.57;;
25249;SDS011;13201;51.148;13.738;2023-12-22T02:07:06;20.35;;;2.90;;
25249;SDS011;13201;51.148;13.738;2023-12-22T02:09:35;18.05;;;2.60;;
25249;SDS011;13201;51.148;13.738;2023-12-22T02:12:02;18.35;;;2.97;;
25249;SDS011;13201;51.148;13.738;2023-12-22T02:14:28;15.60;;;3.00;;
25249;SDS011;13201;51.148;13.738;2023-12-22T02:17:01;17.13;;;3.20;;
25249;SDS011;13201;51.148;13.738;2023-12-22T02:19:40;13.73;;;2.70;;
25249;SDS011;13201;51.148;13.738;2023-12-22T02:22:08;20.70;;;3.05;;
25249;SDS011;13201;51.148;13.738;2023-12-22T02:27:03;16.03;;;2.87;;
25249;SDS011;13201;51.148;13.738;2023-12-22T02:29:41;16.52;;;2.40;;
25249;SDS011;13201;51.148;13.738;2023-12-22T02:32:14;18.80;;;2.97;;
25249;SDS011;13201;51.148;13.738;2023-12-22T02:34:49;20.73;;;3.57;;
25249;SDS011;13201;51.148;13.738;2023-12-22T02:37:17;19.27;;;3.13;;
25249;SDS011;13201;51.148;13.738;2023-12-22T02:39:45;18.33;;;2.95;;
25249;SDS011;13201;51.148;13.738;2023-12-22T02:42:12;15.85;;;2.55;;
25249;SDS011;13201;51.148;13.738;2023-12-22T02:44:38;24.80;;;3.37;;
25249;SDS011;13201;51.148;13.738;2023-12-22T02:47:04;15.75;;;2.58;;
25249;SDS011;13201;51.148;13.738;2023-12-22T02:49:30;14.07;;;2.45;;
25249;SDS011;13201;51.148;13.738;2023-12-22T02:51:55;17.23;;;2.78;;
25249;SDS011;13201;51.148;13.738;2023-12-22T02:54:21;22.00;;;2.90;;
25249;SDS011;13201;51.148;13.738;2023-12-22T02:56:47;19.98;;;2.60;;
25249;SDS011;13201;51.148;13.738;2023-12-22T02:59:13;23.85;;;3.28;;
25249;SDS011;13201;51.148;13.738;2023-12-22T03:01:38;20.25;;;3.40;;
25249;SDS011;13201;51.148;13.738;2023-12-22T03:04:04;23.42;;;3.22;;
25249;SDS011;13201;51.148;13.738;2023-12-22T03:06:30;20.90;;;3.25;;
25249;SDS011;13201;51.148;13.738;2023-12-22T03:08:56;18.75;;;3.00;;
25249;SDS011;13201;51.148;13.738;2023-12-22T03:11:21;23.52;;;4.00;;
25249;SDS011;13201;51.148;13.738;2023-12-22T03:13:47;22.20;;;3.72;;
25249;SDS011;13201;51.148;13.738;2023-12-22T03:16:12;15.82;;;2.50;;
25249;SDS011;13201;51.148;13.738;2023-12-22T03:18:38;18.65;;;3.28;;
25249;SDS011;13201;51.148;13.738;2023-12-22T03:21:04;23.03;;;3.10;;
25249;SDS011;13201;51.148;13.738;2023-12-22T03:23:30;19.33;;;2.88;;
25249;SDS011;13201;51.148;13.738;2023-12-22T03:25:56;20.60;;;3.25;;
25249;SDS011;13201;51.148;13.738;2023-12-22T03:28:21;22.50;;;3.00;;
25249;SDS011;13201;51.148;13.738;2023-12-22T03:30:47;25.67;;;3.33;;
25249;SDS011;13201;51.148;13.738;2023-12-22T03:33:13;23.00;;;3.35;;
25249;SDS011;13201;51.148;13.738;2023-12-22T03:35:38;17.83;;;3.20;;
25249;SDS011;13201;51.148;13.738;2023-12-22T03:38:04;24.38;;;3.55;;
25249;SDS011;13201;51.148;13.738;2023-12-22T03:40:29;25.48;;;3.40;;
25249;SDS011;13201;51.148;13.738;2023-12-22T03:42:55;23.55;;;3.42;;
25249;SDS011;13201;51.148;13.738;2023-12-22T03:45:21;21.10;;;3.97;;
25249;SDS011;13201;51.148;13.738;2023-12-22T03:47:47;26.73;;;3.60;;
25249;SDS011;13201;51.148;13.738;2023-12-22T03:50:12;27.35;;;3.53;;
25249;SDS011;13201;51.148;13.738;2023-12-22T03:52:38;16.08;;;3.25;;
25249;SDS011;13201;51.148;13.738;2023-12-22T03:55:04;21.45;;;2.90;;
25249;SDS011;13201;51.148;13.738;2023-12-22T03:57:29;23.42;;;2.92;;
25249;SDS011;13201;51.148;13.738;2023-12-22T03:59:55;16.38;;;2.72;;
25249;SDS011;13201;51.148;13.738;2023-12-22T04:02:21;19.98;;;2.90;;
25249;SDS011;13201;51.148;13.738;2023-12-22T04:04:47;20.97;;;2.73;;
25249;SDS011;13201;51.148;13.738;2023-12-22T04:07:13;18.52;;;3.17;;
25249;SDS011;13201;51.148;13.738;2023-12-22T04:09:38;14.98;;;2.60;;
25249;SDS011;13201;51.148;13.738;2023-12-22T04:12:04;13.13;;;2.33;;
25249;SDS011;13201;51.148;13.738;2023-12-22T04:14:30;21.73;;;2.83;;
25249;SDS011;13201;51.148;13.738;2023-12-22T04:16:56;15.93;;;2.60;;
25249;SDS011;13201;51.148;13.738;2023-12-22T04:19:22;14.13;;;2.43;;
25249;SDS011;13201;51.148;13.738;2023-12-22T04:21:48;17.30;;;2.80;;
25249;SDS011;13201;51.148;13.738;2023-12-22T04:24:13;13.98;;;2.55;;
25249;SDS011;13201;51.148;13.738;2023-12-22T04:26:39;13.27;;;1.92;;
25249;SDS011;13201;51.148;13.738;2023-12-22T04:29:05;13.98;;;2.53;;
25249;SDS011;13201;51.148;13.738;2023-12-22T04:31:30;16.02;;;2.58;;
25249;SDS011;13201;51.148;13.738;2023-12-22T04:33:56;16.65;;;2.33;;
25249;SDS011;13201;51.148;13.738;2023-12-22T04:36:22;15.13;;;2.45;;
25249;SDS011;13201;51.148;13.738;2023-12-22T04:38:47;21.38;;;2.17;;
25249;SDS011;13201;51.148;13.738;2023-12-22T04:41:13;15.20;;;2.22;;
25249;SDS011;13201;51.148;13.738;2023-12-22T04:43:39;12.07;;;1.95;;
25249;SDS011;13201;51.148;13.738;2023-12-22T04:46:04;16.08;;;3.05;;
25249;SDS011;13201;51.148;13.738;2023-12-22T04:48:30;11.00;;;2.00;;
25249;SDS011;13201;51.148;13.738;2023-12-22T04:50:58;11.48;;;1.98;;
25249;SDS011;13201;51.148;13.738;2023-12-22T04:53:23;11.27;;;2.20;;
25249;SDS011;13201;51.148;13.738;2023-12-22T04:55:49;13.85;;;1.95;;
25249;SDS011;13201;51.148;13.738;2023-12-22T04:58:15;10.38;;;1.80;;
25249;SDS011;13201;51.148;13.738;2023-12-22T05:00:40;10.85;;;1.92;;
25249;SDS011;13201;51.148;13.738;2023-12-22T05:03:06;13.70;;;2.42;;
25249;SDS011;13201;51.148;13.738;2023-12-22T05:05:32;14.43;;;2.83;;
25249;SDS011;13201;51.148;13.738;2023-12-22T05:07:57;11.85;;;1.88;;
25249;SDS011;13201;51.148;13.738;2023-12-22T05:10:24;9.45;;;1.77;;
25249;SDS011;13201;51.148;13.738;2023-12-22T05:12:49;9.40;;;2.00;;
25249;SDS011;13201;51.148;13.738;2023-12-22T05:15:15;10.07;;;1.80;;
25249;SDS011;13201;51.148;13.738;2023-12-22T05:17:41;6.97;;;1.23;;
25249;SDS011;13201;51.148;13.738;2023-12-22T05:20:07;7.63;;;1.40;;
25249;SDS011;13201;51.148;13.738;2023-12-22T05:22:35;7.20;;;1.60;;
25249;SDS011;13201;51.148;13.738;2023-12-22T05:27:27;4.40;;;1.10;;
25249;SDS011;13201;51.148;13.738;2023-12-22T05:29:53;10.15;;;1.40;;
25249;SDS011;13201;51.148;13.738;2023-12-22T05:32:18;7.55;;;1.13;;
25249;SDS011;13201;51.148;13.738;2023-12-22T05:34:44;6.63;;;1.30;;
25249;SDS011;13201;51.148;13.738;2023-12-22T05:37:09;2.88;;;1.00;;
25249;SDS011;13201;51.148;13.738;2023-12-22T05:39:35;6.22;;;1.23;;
25249;SDS011;13201;51.148;13.738;2023-12-22T05:42:01;7.35;;;1.27;;
25249;SDS011;13201;51.148;13.738;2023-12-22T05:44:26;7.15;;;1.20;;
25249;SDS011;13201;51.148;13.738;2023-12-22T05:46:55;10.23;;;1.65;;
25249;SDS011;13201;51.148;13.738;2023-12-22T05:51:48;7.10;;;1.15;;
25249;SDS011;13201;51.148;13.738;2023-12-22T05:54:15;6.43;;;0.90;;
25249;SDS011;13201;51.148;13.738;2023-12-22T05:59:07;6.73;;;0.93;;
25249;SDS011;13201;51.148;13.738;2023-12-22T06:01:33;3.90;;;1.15;;
25249;SDS011;13201;51.148;13.738;2023-12-22T06:03:58;7.05;;;1.33;;
25249;SDS011;13201;51.148;13.738;2023-12-22T06:06:24;5.30;;;1.30;;
25249;SDS011;13201;51.148;13.738;2023-12-22T06:08:50;7.78;;;1.63;;
25249;SDS011;13201;51.148;13.738;2023-12-22T06:11:15;9.40;;;1.60;;
25249;SDS011;13201;51.148;13.738;2023-12-22T06:13:41;8.77;;;1.38;;
25249;SDS011;13201;51.148;13.738;2023-12-22T06:16:10;6.90;;;1.00;;
25249;SDS011;13201;51.148;13.738;2023-12-22T06:18:37;11.35;;;1.60;;
25249;SDS011;13201;51.148;13.738;2023-12-22T06:21:03;7.63;;;1.70;;
25249;SDS011;13201;51.148;13.738;2023-12-22T06:23:28;7.22;;;1.52;;
25249;SDS011;13201;51.148;13.738;2023-12-22T06:25:55;9.23;;;1.70;;
25249;SDS011;13201;51.148;13.738;2023-12-22T06:28:20;5.78;;;1.13;;
25249;SDS011;13201;51.148;13.738;2023-12-22T06:30:46;6.32;;;1.23;;
25249;SDS011;13201;51.148;13.738;2023-12-22T06:33:12;7.18;;;1.10;;
25249;SDS011;13201;51.148;13.738;2023-12-22T06:35:38;9.47;;;1.30;;
25249;SDS011;13201;51.148;13.738;2023-12-22T06:38:06;15.15;;;2.22;;
25249;SDS011;13201;51.148;13.738;2023-12-22T06:40:32;11.07;;;1.85;;
25249;SDS011;13201;51.148;13.738;2023-12-22T06:42:59;6.63;;;1.63;;
25249;SDS011;13201;51.148;13.738;2023-12-22T06:45:25;10.82;;;1.77;;
25249;SDS011;13201;51.148;13.738;2023-12-22T06:47:50;11.88;;;1.92;;
25249;SDS011;13201;51.148;13.738;2023-12-22T06:50:16;9.32;;;1.88;;
25249;SDS011;13201;51.148;13.738;2023-12-22T06:52:42;10.02;;;1.70;;
25249;SDS011;13201;51.148;13.738;2023-12-22T06:55:08;11.45;;;1.42;;
25249;SDS011;13201;51.148;13.738;2023-12-22T06:57:33;21.58;;;2.25;;
25249;SDS011;13201;51.148;13.738;2023-12-22T06:59:59;8.02;;;1.60;;
25249;SDS011;13201;51.148;13.738;2023-12-22T07:02:25;14.05;;;2.00;;
25249;SDS011;13201;51.148;13.738;2023-12-22T07:07:46;12.32;;;2.00;;
25249;SDS011;13201;51.148;13.738;2023-12-22T07:10:12;8.35;;;1.65;;
25249;SDS011;13201;51.148;13.738;2023-12-22T07:12:37;11.25;;;1.58;;
25249;SDS011;13201;51.148;13.738;2023-12-22T07:15:04;8.70;;;2.10;;
25249;SDS011;13201;51.148;13.738;2023-12-22T07:17:32;7.18;;;1.48;;
25249;SDS011;13201;51.148;13.738;2023-12-22T07:19:57;9.88;;;1.40;;
25249;SDS011;13201;51.148;13.738;2023-12-22T07:22:23;12.65;;;1.30;;
25249;SDS011;13201;51.148;13.738;2023-12-22T07:24:49;7.47;;;2.10;;
25249;SDS011;13201;51.148;13.738;2023-12-22T07:27:16;5.50;;;1.52;;
25249;SDS011;13201;51.148;13.738;2023-12-22T07:29:42;6.88;;;1.70;;
25249;SDS011;13201;51.148;13.738;2023-12-22T07:32:08;9.35;;;1.40;;
25249;SDS011;13201;51.148;13.738;2023-12-22T07:34:33;7.45;;;1.23;;
25249;SDS011;13201;51.148;13.738;2023-12-22T07:36:59;7.00;;;1.15;;
25249;SDS011;13201;51.148;13.738;2023-12-22T07:39:25;10.43;;;1.52;;
25249;SDS011;13201;51.148;13.738;2023-12-22T07:41:50;8.05;;;1.40;;
25249;SDS011;13201;51.148;13.738;2023-12-22T07:44:16;7.43;;;1.30;;
25249;SDS011;13201;51.148;13.738;2023-12-22T07:46:42;8.27;;;1.40;;
25249;SDS011;13201;51.148;13.738;2023-12-22T07:49:07;6.32;;;1.30;;
25249;SDS011;13201;51.148;13.738;2023-12-22T07:51:33;9.57;;;1.48;;
25249;SDS011;13201;51.148;13.738;2023-12-22T07:53:59;7.07;;;1.10;;
25249;SDS011;13201;51.148;13.738;2023-12-22T07:56:24;4.68;;;1.15;;
25249;SDS011;13201;51.148;13.738;2023-12-22T07:58:50;6.38;;;1.55;;
25249;SDS011;13201;51.148;13.738;2023-12-22T08:01:16;8.55;;;1.52;;
25249;SDS011;13201;51.148;13.738;2023-12-22T08:03:41;4.97;;;1.20;;
25249;SDS011;13201;51.148;13.738;2023-12-22T08:06:07;7.13;;;0.98;;
25249;SDS011;13201;51.148;13.738;2023-12-22T08:08:33;5.00;;;1.33;;
25249;SDS011;13201;51.148;13.738;2023-12-22T08:10:59;1.10;;;0.63;;
25249;SDS011;13201;51.148;13.738;2023-12-22T08:13:25;3.15;;;0.50;;
25249;SDS011;13201;51.148;13.738;2023-12-22T08:15:51;4.63;;;1.30;;
25249;SDS011;13201;51.148;13.738;2023-12-22T08:18:16;3.85;;;0.55;;
25249;SDS011;13201;51.148;13.738;2023-12-22T08:20:42;2.42;;;0.50;;
25249;SDS011;13201;51.148;13.738;2023-12-22T08:23:08;3.00;;;0.55;;
25249;SDS011;13201;51.148;13.738;2023-12-22T08:25:33;2.53;;;0.40;;
25249;SDS011;13201;51.148;13.738;2023-12-22T08:27:59;3.00;;;0.52;;
25249;SDS011;13201;51.148;13.738;2023-12-22T08:30:26;2.38;;;0.40;;
25249;SDS011;13201;51.148;13.738;2023-12-22T08:32:51;5.60;;;0.63;;
25249;SDS011;13201;51.148;13.738;2023-12-22T08:37:44;3.00;;;0.60;;
25249;SDS011;13201;51.148;13.738;2023-12-22T08:40:10;3.10;;;0.70;;
25249;SDS011;13201;51.148;13.738;2023-12-22T08:42:35;1.60;;;0.50;;
25249;SDS011;13201;51.148;13.738;2023-12-22T08:45:01;0.90;;;0.38;;
25249;SDS011;13201;51.148;13.738;2023-12-22T08:47:27;1.47;;;0.50;;
25249;SDS011;13201;51.148;13.738;2023-12-22T08:49:53;1.88;;;0.63;;
25249;SDS011;13201;51.148;13.738;2023-12-22T08:52:19;1.60;;;0.73;;
25249;SDS011;13201;51.148;13.738;2023-12-22T08:54:44;3.25;;;0.88;;
25249;SDS011;13201;51.148;13.738;2023-12-22T08:57:10;5.65;;;0.88;;
25249;SDS011;13201;51.148;13.738;2023-12-22T08:59:35;2.58;;;0.68;;
25249;SDS011;13201;51.148;13.738;2023-12-22T09:02:01;2.45;;;0.73;;
25249;SDS011;13201;51.148;13.738;2023-12-22T09:04:27;3.13;;;0.90;;
25249;SDS011;13201;51.148;13.738;2023-12-22T09:06:53;5.35;;;0.88;;
25249;SDS011;13201;51.148;13.738;2023-12-22T09:09:18;8.05;;;1.25;;
25249;SDS011;13201;51.148;13.738;2023-12-22T09:11:46;6.63;;;1.13;;
25249;SDS011;13201;51.148;13.738;2023-12-22T09:14:12;4.75;;;1.00;;
25249;SDS011;13201;51.148;13.738;2023-12-22T09:16:37;6.95;;;1.20;;
25249;SDS011;13201;51.148;13.738;2023-12-22T09:19:03;5.57;;;1.48;;
25249;SDS011;13201;51.148;13.738;2023-12-22T09:21:29;8.93;;;1.40;;
25249;SDS011;13201;51.148;13.738;2023-12-22T09:23:55;6.90;;;1.27;;
25249;SDS011;13201;51.148;13.738;2023-12-22T09:26:21;5.55;;;0.85;;
25249;SDS011;13201;51.148;13.738;2023-12-22T09:28:48;5.97;;;0.90;;
25249;SDS011;13201;51.148;13.738;2023-12-22T09:31:13;5.25;;;1.02;;
25249;SDS011;13201;51.148;13.738;2023-12-22T09:33:40;2.40;;;1.00;;
25249;SDS011;13201;51.148;13.738;2023-12-22T09:36:07;2.33;;;0.40;;
25249;SDS011;13201;51.148;13.738;2023-12-22T09:38:33;2.92;;;0.60;;
25249;SDS011;13201;51.148;13.738;2023-12-22T09:40:59;2.08;;;0.38;;
25249;SDS011;13201;51.148;13.738;2023-12-22T09:45:52;2.97;;;0.70;;
25249;SDS011;13201;51.148;13.738;2023-12-22T09:48:18;2.83;;;0.52;;
25249;SDS011;13201;51.148;13.738;2023-12-22T09:50:52;2.17;;;0.52;;
25249;SDS011;13201;51.148;13.738;2023-12-22T09:53:19;3.70;;;0.65;;
25249;SDS011;13201;51.148;13.738;2023-12-22T09:55:46;4.78;;;0.82;;
25249;SDS011;13201;51.148;13.738;2023-12-22T09:58:14;8.63;;;3.45;;
25249;SDS011;13201;51.148;13.738;2023-12-22T10:00:41;4.85;;;1.42;;
25249;SDS011;13201;51.148;13.738;2023-12-22T10:03:08;4.53;;;1.08;;
25249;SDS011;13201;51.148;13.738;2023-12-22T10:05:36;8.90;;;1.25;;
25249;SDS011;13201;51.148;13.738;2023-12-22T10:08:02;5.38;;;1.02;;
25249;SDS011;13201;51.148;13.738;2023-12-22T10:10:29;3.30;;;0.80;;
25249;SDS011;13201;51.148;13.738;2023-12-22T10:12:56;6.95;;;1.23;;
25249;SDS011;13201;51.148;13.738;2023-12-22T10:15:23;8.88;;;1.23;;
25249;SDS011;13201;51.148;13.738;2023-12-22T10:17:50;8.30;;;1.33;;
25249;SDS011;13201;51.148;13.738;2023-12-22T10:20:16;4.38;;;0.80;;
25249;SDS011;13201;51.148;13.738;2023-12-22T10:22:42;5.18;;;0.98;;
25249;SDS011;13201;51.148;13.738;2023-12-22T10:25:08;6.45;;;1.27;;
25249;SDS011;13201;51.148;13.738;2023-12-22T10:27:35;6.78;;;1.17;;
25249;SDS011;13201;51.148;13.738;2023-12-22T10:30:02;6.15;;;1.10;;
25249;SDS011;13201;51.148;13.738;2023-12-22T10:32:28;4.70;;;0.90;;
25249;SDS011;13201;51.148;13.738;2023-12-22T10:34:55;8.65;;;1.10;;
25249;SDS011;13201;51.148;13.738;2023-12-22T10:37:22;5.82;;;0.88;;
25249;SDS011;13201;51.148;13.738;2023-12-22T10:39:52;7.00;;;1.33;;
25249;SDS011;13201;51.148;13.738;2023-12-22T10:42:18;5.97;;;0.90;;
25249;SDS011;13201;51.148;13.738;2023-12-22T10:44:44;4.82;;;1.13;;
25249;SDS011;13201;51.148;13.738;2023-12-22T10:47:10;4.90;;;0.95;;
25249;SDS011;13201;51.148;13.738;2023-12-22T10:49:36;7.05;;;1.25;;
25249;SDS011;13201;51.148;13.738;2023-12-22T10:52:02;8.00;;;1.02;;
25249;SDS011;13201;51.148;13.738;2023-12-22T10:54:28;6.78;;;1.38;;
25249;SDS011;13201;51.148;13.738;2023-12-22T10:56:58;4.55;;;1.20;;
25249;SDS011;13201;51.148;13.738;2023-12-22T10:59:30;7.78;;;1.38;;
25249;SDS011;13201;51.148;13.738;2023-12-22T11:01:58;5.55;;;1.23;;
25249;SDS011;13201;51.148;13.738;2023-12-22T11:04:25;6.65;;;1.23;;
25249;SDS011;13201;51.148;13.738;2023-12-22T11:06:59;3.38;;;0.82;;
25249;SDS011;13201;51.148;13.738;2023-12-22T11:09:28;4.57;;;0.98;;
25249;SDS011;13201;51.148;13.738;2023-12-22T11:11:57;2.35;;;0.60;;
25249;SDS011;13201;51.148;13.738;2023-12-22T11:14:23;3.60;;;0.88;;
25249;SDS011;13201;51.148;13.738;2023-12-22T11:16:51;4.20;;;0.70;;
25249;SDS011;13201;51.148;13.738;2023-12-22T11:19:20;2.97;;;0.90;;
25249;SDS011;13201;51.148;13.738;2023-12-22T11:21:47;4.00;;;0.88;;
25249;SDS011;13201;51.148;13.738;2023-12-22T11:24:15;4.95;;;0.77;;
25249;SDS011;13201;51.148;13.738;2023-12-22T11:26:43;4.65;;;1.20;;
25249;SDS011;13201;51.148;13.738;2023-12-22T11:29:12;4.70;;;1.00;;
25249;SDS011;13201;51.148;13.738;2023-12-22T11:31:40;5.30;;;0.50;;
25249;SDS011;13201;51.148;13.738;2023-12-22T11:34:08;5.05;;;1.00;;
25249;SDS011;13201;51.148;13.738;2023-12-22T11:36:36;4.97;;;1.00;;
25249;SDS011;13201;51.148;13.738;2023-12-22T11:39:03;7.85;;;0.90;;
25249;SDS011;13201;51.148;13.738;2023-12-22T11:41:30;6.15;;;0.93;;
25249;SDS011;13201;51.148;13.738;2023-12-22T11:43:59;7.28;;;1.50;;
25249;SDS011;13201;51.148;13.738;2023-12-22T11:46:26;8.90;;;1.92;;
25249;SDS011;13201;51.148;13.738;2023-12-22T11:48:52;5.45;;;1.00;;
25249;SDS011;13201;51.148;13.738;2023-12-22T11:51:18;5.53;;;1.37;;
25249;SDS011;13201;51.148;13.738;2023-12-22T11:53:45;10.30;;;1.77;;
25249;SDS011;13201;51.148;13.738;2023-12-22T11:56:11;10.30;;;1.85;;
25249;SDS011;13201;51.148;13.738;2023-12-22T11:58:45;6.40;;;1.30;;
25249;SDS011;13201;51.148;13.738;2023-12-22T12:01:20;7.57;;;1.50;;
25249;SDS011;13201;51.148;13.738;2023-12-22T12:03:49;8.75;;;1.33;;
25249;SDS011;13201;51.148;13.738;2023-12-22T12:08:59;6.05;;;1.50;;
25249;SDS011;13201;51.148;13.738;2023-12-22T12:14:20;12.55;;;1.90;;
25249;SDS011;13201;51.148;13.738;2023-12-22T12:16:55;11.93;;;1.73;;
25249;SDS011;13201;51.148;13.738;2023-12-22T12:19:34;12.40;;;1.60;;
25249;SDS011;13201;51.148;13.738;2023-12-22T12:22:00;5.78;;;1.50;;
25249;SDS011;13201;51.148;13.738;2023-12-22T12:24:26;11.18;;;1.70;;
25249;SDS011;13201;51.148;13.738;2023-12-22T12:26:52;12.57;;;1.77;;
25249;SDS011;13201;51.148;13.738;2023-12-22T12:29:18;11.02;;;1.58;;
25249;SDS011;13201;51.148;13.738;2023-12-22T12:31:45;8.40;;;1.48;;
25249;SDS011;13201;51.148;13.738;2023-12-22T12:34:11;6.68;;;1.70;;
25249;SDS011;13201;51.148;13.738;2023-12-22T12:36:37;10.10;;;1.77;;
25249;SDS011;13201;51.148;13.738;2023-12-22T12:39:07;10.60;;;1.90;;
25249;SDS011;13201;51.148;13.738;2023-12-22T12:41:35;8.07;;;1.60;;
25249;SDS011;13201;51.148;13.738;2023-12-22T12:44:05;9.88;;;1.50;;
25249;SDS011;13201;51.148;13.738;2023-12-22T12:46:35;8.60;;;1.80;;
25249;SDS011;13201;51.148;13.738;2023-12-22T12:49:05;9.82;;;1.58;;
25249;SDS011;13201;51.148;13.738;2023-12-22T12:54:04;9.80;;;1.70;;
25249;SDS011;13201;51.148;13.738;2023-12-22T13:01:37;3.53;;;0.82;;
25249;SDS011;13201;51.148;13.738;2023-12-22T13:04:06;7.10;;;1.30;;
25249;SDS011;13201;51.148;13.738;2023-12-22T13:06:32;5.07;;;1.40;;
25249;SDS011;13201;51.148;13.738;2023-12-22T13:08:58;8.00;;;1.10;;
25249;SDS011;13201;51.148;13.738;2023-12-22T13:11:25;5.93;;;0.90;;
25249;SDS011;13201;51.148;13.738;2023-12-22T13:13:52;8.38;;;1.50;;
25249;SDS011;13201;51.148;13.738;2023-12-22T13:16:19;6.35;;;1.20;;
25249;SDS011;13201;51.148;13.738;2023-12-22T13:18:49;3.70;;;0.70;;
25249;SDS011;13201;51.148;13.738;2023-12-22T13:21:15;4.05;;;1.00;;
25249;SDS011;13201;51.148;13.738;2023-12-22T13:23:41;8.85;;;1.17;;
25249;SDS011;13201;51.148;13.738;2023-12-22T13:26:17;5.00;;;1.40;;
25249;SDS011;13201;51.148;13.738;2023-12-22T13:28:43;5.78;;;1.10;;
25249;SDS011;13201;51.148;13.738;2023-12-22T13:31:12;4.38;;;1.10;;
25249;SDS011;13201;51.148;13.738;2023-12-22T13:33:39;5.38;;;0.60;;
25249;SDS011;13201;51.148;13.738;2023-12-22T13:36:06;3.42;;;0.60;;
25249;SDS011;13201;51.148;13.738;2023-12-22T13:38:32;4.65;;;0.73;;
25249;SDS011;13201;51.148;13.738;2023-12-22T13:41:00;2.65;;;0.60;;
25249;SDS011;13201;51.148;13.738;2023-12-22T13:43:30;3.72;;;0.60;;
25249;SDS011;13201;51.148;13.738;2023-12-22T13:45:55;3.60;;;0.70;;
25249;SDS011;13201;51.148;13.738;2023-12-22T13:48:22;1.23;;;0.43;;
25249;SDS011;13201;51.148;13.738;2023-12-22T13:51:00;0.60;;;0.37;;
25249;SDS011;13201;51.148;13.738;2023-12-22T13:53:27;2.10;;;0.45;;
25249;SDS011;13201;51.148;13.738;2023-12-22T13:55:56;3.20;;;0.45;;
25249;SDS011;13201;51.148;13.738;2023-12-22T13:58:22;1.55;;;0.50;;
25249;SDS011;13201;51.148;13.738;2023-12-22T14:00:48;1.10;;;0.47;;
25249;SDS011;13201;51.148;13.738;2023-12-22T14:03:14;2.17;;;0.67;;
25249;SDS011;13201;51.148;13.738;2023-12-22T14:05:46;1.17;;;0.43;;
25249;SDS011;13201;51.148;13.738;2023-12-22T14:08:17;0.98;;;0.60;;
25249;SDS011;13201;51.148;13.738;2023-12-22T14:10:46;1.08;;;0.32;;
25249;SDS011;13201;51.148;13.738;2023-12-22T14:13:15;1.10;;;0.20;;
25249;SDS011;13201;51.148;13.738;2023-12-22T14:15:44;1.40;;;0.60;;
25249;SDS011;13201;51.148;13.738;2023-12-22T14:18:13;2.00;;;0.30;;
25249;SDS011;13201;51.148;13.738;2023-12-22T14:20:38;1.00;;;0.32;;
25249;SDS011;13201;51.148;13.738;2023-12-22T14:23:04;3.33;;;0.60;;
25249;SDS011;13201;51.148;13.738;2023-12-22T14:25:29;4.15;;;0.43;;
25249;SDS011;13201;51.148;13.738;2023-12-22T14:30:24;1.60;;;0.43;;
25249;SDS011;13201;51.148;13.738;2023-12-22T14:32:49;1.27;;;0.50;;
25249;SDS011;13201;51.148;13.738;2023-12-22T14:35:15;2.83;;;0.47;;
25249;SDS011;13201;51.148;13.738;2023-12-22T14:37:41;0.30;;;0.30;;
25249;SDS011;13201;51.148;13.738;2023-12-22T14:40:08;2.45;;;0.38;;
25249;SDS011;13201;51.148;13.738;2023-12-22T14:42:34;1.92;;;0.47;;
25249;SDS011;13201;51.148;13.738;2023-12-22T14:45:00;2.88;;;1.67;;
25249;SDS011;13201;51.148;13.738;2023-12-22T14:47:29;1.98;;;0.55;;
25249;SDS011;13201;51.148;13.738;2023-12-22T14:49:55;3.22;;;0.98;;
25249;SDS011;13201;51.148;13.738;2023-12-22T14:52:24;2.58;;;0.68;;
25249;SDS011;13201;51.148;13.738;2023-12-22T14:54:50;4.82;;;1.75;;
25249;SDS011;13201;51.148;13.738;2023-12-22T14:57:16;15.07;;;7.18;;
25249;SDS011;13201;51.148;13.738;2023-12-22T14:59:46;3.75;;;1.58;;
25249;SDS011;13201;51.148;13.738;2023-12-22T15:02:12;3.42;;;0.70;;
25249;SDS011;13201;51.148;13.738;2023-12-22T15:04:37;2.65;;;1.00;;
25249;SDS011;13201;51.148;13.738;2023-12-22T15:07:03;3.15;;;1.10;;
25249;SDS011;13201;51.148;13.738;2023-12-22T15:09:29;1.05;;;0.65;;
25249;SDS011;13201;51.148;13.738;2023-12-22T15:11:55;2.33;;;0.77;;
25249;SDS011;13201;51.148;13.738;2023-12-22T15:14:20;2.63;;;0.88;;
25249;SDS011;13201;51.148;13.738;2023-12-22T15:16:47;2.70;;;0.98;;
25249;SDS011;13201;51.148;13.738;2023-12-22T15:19:15;3.75;;;1.00;;
25249;SDS011;13201;51.148;13.738;2023-12-22T15:21:42;4.68;;;1.08;;